createdAt,value
2018-10-11T00:01:37.037Z,25.40
2018-10-11T00:04:05.374Z,25.00
2018-10-11T00:06:33.617Z,25.27
2018-10-11T00:09:01.825Z,25.17
2018-10-11T00:11:30.374Z,24.33
2018-10-11T00:13:58.583Z,25.17
2018-10-11T00:16:26.867Z,25.77
2018-10-11T00:18:55.189Z,26.00
2018-10-11T00:21:23.494Z,26.00
2018-10-11T00:23:51.807Z,26.30
2018-10-11T00:26:20.123Z,24.67
2018-10-11T00:28:48.473Z,26.47
2018-10-11T00:31:16.722Z,25.93
2018-10-11T00:33:45.046Z,26.70
2018-10-11T00:36:13.246Z,25.27
2018-10-11T00:38:41.553Z,26.00
2018-10-11T00:41:09.887Z,25.27
2018-10-11T00:43:38.197Z,26.50
2018-10-11T00:46:06.477Z,25.00
2018-10-11T00:48:34.731Z,26.13
2018-10-11T00:51:02.971Z,25.67
2018-10-11T00:53:31.220Z,25.67
2018-10-11T00:55:59.455Z,25.63
2018-10-11T00:58:27.767Z,26.07
2018-10-11T01:00:56.035Z,26.20
2018-10-11T01:03:24.217Z,26.47
2018-10-11T01:05:52.667Z,26.17
2018-10-11T01:08:20.965Z,27.43
2018-10-11T01:10:49.183Z,25.50
2018-10-11T01:13:17.525Z,25.70
2018-10-11T01:15:45.697Z,26.40
2018-10-11T01:18:14.298Z,27.27
2018-10-11T01:20:42.625Z,26.43
2018-10-11T01:23:10.911Z,26.47
2018-10-11T01:25:39.280Z,26.83
2018-10-11T01:28:07.539Z,27.00
2018-10-11T01:30:35.812Z,25.57
2018-10-11T01:33:04.094Z,26.03
2018-10-11T01:35:32.322Z,25.57
2018-10-11T01:38:00.704Z,26.70
2018-10-11T01:40:28.991Z,25.50
2018-10-11T01:43:01.710Z,24.23
2018-10-11T01:45:29.956Z,26.63
2018-10-11T01:47:58.663Z,26.97
2018-10-11T01:50:27.052Z,27.73
2018-10-11T01:52:56.013Z,26.73
2018-10-11T01:55:24.914Z,25.17
2018-10-11T01:57:53.308Z,25.53
2018-10-11T02:00:21.508Z,25.43
2018-10-11T02:02:49.815Z,25.60
2018-10-11T02:05:18.124Z,26.13
2018-10-11T02:07:46.346Z,25.50
2018-10-11T02:10:14.630Z,25.73
2018-10-11T02:12:43.000Z,26.43
2018-10-11T02:15:11.550Z,26.63
2018-10-11T02:17:39.996Z,26.33
2018-10-11T02:20:08.274Z,26.23
2018-10-11T02:22:36.554Z,25.93
2018-10-11T02:25:04.796Z,25.57
2018-10-11T02:27:33.204Z,25.93
2018-10-11T02:30:01.556Z,24.63
2018-10-11T02:32:29.884Z,25.47
2018-10-11T02:34:58.366Z,24.10
2018-10-11T02:37:26.756Z,24.97
2018-10-11T02:39:55.244Z,25.67
2018-10-11T02:42:23.551Z,24.87
2018-10-11T02:44:51.831Z,26.13
2018-10-11T02:47:20.046Z,24.73
2018-10-11T02:49:48.334Z,25.30
2018-10-11T02:52:16.575Z,24.13
2018-10-11T02:54:44.875Z,24.30
2018-10-11T02:57:24.540Z,25.23
2018-10-11T02:59:52.889Z,24.57
2018-10-11T03:02:21.354Z,25.67
2018-10-11T03:04:49.990Z,25.00
2018-10-11T03:07:18.676Z,25.17
2018-10-11T03:09:47.739Z,25.83
2018-10-11T03:12:16.322Z,25.50
2018-10-11T03:14:44.916Z,24.50
2018-10-11T03:17:13.112Z,23.53
2018-10-11T03:19:42.351Z,24.90
2018-10-11T03:22:11.023Z,25.43
2018-10-11T03:24:39.433Z,24.47
2018-10-11T03:27:07.637Z,25.27
2018-10-11T03:29:35.867Z,23.57
2018-10-11T03:32:04.202Z,24.57
2018-10-11T03:34:32.455Z,22.73
2018-10-11T03:37:00.675Z,23.43
2018-10-11T03:39:29.458Z,23.83
2018-10-11T03:41:58.808Z,22.57
2018-10-11T03:44:27.691Z,23.50
2018-10-11T03:46:55.987Z,23.93
2018-10-11T03:49:28.398Z,24.03
2018-10-11T03:51:56.645Z,23.13
2018-10-11T03:54:25.073Z,24.47
2018-10-11T03:56:53.484Z,23.60
2018-10-11T03:59:21.755Z,22.90
2018-10-11T04:01:49.992Z,23.53
2018-10-11T04:04:18.241Z,23.43
2018-10-11T04:06:46.486Z,23.60
2018-10-11T04:09:14.841Z,23.80
2018-10-11T04:11:43.225Z,23.40
2018-10-11T04:14:11.519Z,22.97
2018-10-11T04:16:39.737Z,46.33
2018-10-11T04:19:08.075Z,33.67
2018-10-11T04:21:36.335Z,26.57
2018-10-11T04:24:04.571Z,25.13
2018-10-11T04:26:33.148Z,24.53
2018-10-11T04:29:01.445Z,23.93
2018-10-11T04:31:30.008Z,23.57
2018-10-11T04:33:58.518Z,24.23
2018-10-11T04:36:26.942Z,23.93
2018-10-11T04:38:55.228Z,24.80
2018-10-11T04:41:25.103Z,23.80
2018-10-11T04:43:53.534Z,24.27
2018-10-11T04:46:23.232Z,23.90
2018-10-11T04:48:52.638Z,24.90
2018-10-11T04:51:21.010Z,24.73
2018-10-11T04:53:55.675Z,25.20
2018-10-11T04:56:25.003Z,25.23
2018-10-11T04:58:53.513Z,23.43
2018-10-11T05:01:21.783Z,24.63
2018-10-11T05:03:50.107Z,25.00
2018-10-11T05:06:18.624Z,23.77
2018-10-11T05:08:46.978Z,24.13
2018-10-11T05:11:15.303Z,25.77
2018-10-11T05:13:45.802Z,24.00
2018-10-11T05:16:14.998Z,23.30
2018-10-11T05:18:47.009Z,24.20
2018-10-11T05:21:15.376Z,24.37
2018-10-11T05:23:44.242Z,23.63
2018-10-11T05:26:12.782Z,39.17
2018-10-11T05:28:41.473Z,31.23
2018-10-11T05:31:09.835Z,23.93
2018-10-11T05:33:38.826Z,23.57
2018-10-11T05:36:07.054Z,23.03
2018-10-11T05:38:35.604Z,22.77
2018-10-11T05:41:03.943Z,23.33
2018-10-11T05:43:32.413Z,22.70
2018-10-11T05:46:02.409Z,24.30
2018-10-11T05:48:32.317Z,23.67
2018-10-11T05:51:01.481Z,23.93
2018-10-11T05:53:30.353Z,22.33
2018-10-11T05:55:59.003Z,22.10
2018-10-11T05:58:27.795Z,23.03
2018-10-11T06:00:56.463Z,22.63
2018-10-11T06:03:24.813Z,23.57
2018-10-11T06:05:54.128Z,23.03
2018-10-11T06:08:22.587Z,22.60
2018-10-11T06:10:51.195Z,35.87
2018-10-11T06:13:19.635Z,26.33
2018-10-11T06:15:48.350Z,25.97
2018-10-11T06:18:18.514Z,24.50
2018-10-11T06:20:46.931Z,24.37
2018-10-11T06:23:15.403Z,22.93
2018-10-11T06:25:44.685Z,23.87
2018-10-11T06:28:13.310Z,23.80
2018-10-11T06:30:41.702Z,22.50
2018-10-11T06:33:10.160Z,21.33
2018-10-11T06:35:38.597Z,23.23
2018-10-11T06:38:06.887Z,23.50
2018-10-11T06:40:36.577Z,23.50
2018-10-11T06:43:05.090Z,22.57
2018-10-11T06:45:33.700Z,22.13
2018-10-11T06:48:03.867Z,22.00
2018-10-11T06:50:32.944Z,21.70
2018-10-11T06:53:01.355Z,40.27
2018-10-11T06:55:29.620Z,46.40
2018-10-11T06:57:57.954Z,28.20
2018-10-11T07:00:27.132Z,23.70
2018-10-11T07:02:55.855Z,22.97
2018-10-11T07:05:24.382Z,20.93
2018-10-11T07:07:53.532Z,21.93
2018-10-11T07:10:22.796Z,22.03
2018-10-11T07:12:51.030Z,20.77
2018-10-11T07:15:19.269Z,22.13
2018-10-11T07:17:47.747Z,21.57
2018-10-11T07:20:16.208Z,21.67
2018-10-11T07:22:44.696Z,21.10
2018-10-11T07:25:13.077Z,21.57
2018-10-11T07:27:41.522Z,20.57
2018-10-11T07:30:10.115Z,20.70
2018-10-11T07:32:38.399Z,20.80
2018-10-11T07:35:06.752Z,19.30
2018-10-11T07:37:35.216Z,20.90
2018-10-11T07:40:03.556Z,20.53
2018-10-11T07:42:31.862Z,20.77
2018-10-11T07:45:00.309Z,20.27
2018-10-11T07:47:29.013Z,22.73
2018-10-11T07:50:03.217Z,21.63
2018-10-11T07:52:38.155Z,21.37
2018-10-11T07:55:06.531Z,21.07
2018-10-11T07:57:34.854Z,21.17
2018-10-11T08:00:03.115Z,20.37
2018-10-11T08:02:31.694Z,20.03
2018-10-11T08:05:00.062Z,20.60
2018-10-11T08:07:28.945Z,28.63
2018-10-11T08:09:57.117Z,35.03
2018-10-11T08:12:25.501Z,20.30
2018-10-11T08:14:53.951Z,18.87
2018-10-11T08:17:22.430Z,22.73
2018-10-11T08:19:51.198Z,24.83
2018-10-11T08:22:19.665Z,24.47
2018-10-11T08:24:48.942Z,22.13
2018-10-11T08:27:17.329Z,20.67
2018-10-11T08:29:45.649Z,20.90
2018-10-11T08:32:14.051Z,19.93
2018-10-11T08:34:42.549Z,21.30
2018-10-11T08:37:10.879Z,19.20
2018-10-11T08:39:39.196Z,24.17
2018-10-11T08:42:09.907Z,26.73
2018-10-11T08:44:38.181Z,25.47
2018-10-11T08:47:07.472Z,22.03
2018-10-11T08:49:35.805Z,21.33
2018-10-11T08:52:04.116Z,20.80
2018-10-11T08:54:37.889Z,17.87
2018-10-11T08:57:06.636Z,21.73
2018-10-11T08:59:35.013Z,20.00
2018-10-11T09:02:03.280Z,19.70
2018-10-11T09:04:31.667Z,20.30
2018-10-11T09:06:59.966Z,18.77
2018-10-11T09:09:28.317Z,18.60
2018-10-11T09:11:57.225Z,18.17
2018-10-11T09:14:25.711Z,17.20
2018-10-11T09:16:54.077Z,17.13
2018-10-11T09:19:22.499Z,16.83
2018-10-11T09:21:50.831Z,17.30
2018-10-11T09:24:19.408Z,16.60
2018-10-11T09:26:47.653Z,19.50
2018-10-11T09:29:15.958Z,17.43
2018-10-11T09:31:44.293Z,19.60
2018-10-11T09:34:12.656Z,18.17
2018-10-11T09:36:40.998Z,15.57
2018-10-11T09:39:09.556Z,15.47
2018-10-11T09:41:39.226Z,17.30
2018-10-11T09:44:07.733Z,17.13
2018-10-11T09:46:42.913Z,16.03
2018-10-11T09:49:16.566Z,14.87
2018-10-11T09:51:44.789Z,14.57
2018-10-11T09:54:13.588Z,13.87
2018-10-11T09:57:18.839Z,13.40
2018-10-11T09:59:47.248Z,13.90
2018-10-11T10:02:15.825Z,18.30
2018-10-11T10:04:48.338Z,16.50
2018-10-11T10:07:16.705Z,15.90
2018-10-11T10:09:45.794Z,14.47
2018-10-11T10:12:14.421Z,14.13
2018-10-11T10:14:43.518Z,14.73
2018-10-11T10:17:11.837Z,13.23
2018-10-11T10:19:40.829Z,13.53
2018-10-11T10:22:09.138Z,12.80
2018-10-11T10:24:37.598Z,16.23
2018-10-11T10:27:06.021Z,19.33
2018-10-11T10:29:34.551Z,15.00
2018-10-11T10:32:03.230Z,15.13
2018-10-11T10:34:31.550Z,14.03
2018-10-11T10:36:59.918Z,13.90
2018-10-11T10:39:28.851Z,13.23
2018-10-11T10:41:57.298Z,13.63
2018-10-11T10:44:25.603Z,14.57
2018-10-11T10:46:53.957Z,13.30
2018-10-11T10:49:22.327Z,13.17
2018-10-11T10:51:50.649Z,14.77
2018-10-11T10:54:21.443Z,13.60
2018-10-11T10:56:50.423Z,14.43
2018-10-11T10:59:18.722Z,14.97
2018-10-11T11:01:47.259Z,24.33
2018-10-11T11:04:15.569Z,18.33
2018-10-11T11:06:43.926Z,14.77
2018-10-11T11:09:13.599Z,14.93
2018-10-11T11:11:43.217Z,14.73
2018-10-11T11:14:12.976Z,13.80
2018-10-11T11:16:41.730Z,13.03
2018-10-11T11:19:11.045Z,13.63
2018-10-11T11:21:39.397Z,13.23
2018-10-11T11:24:07.762Z,13.87
2018-10-11T11:26:36.045Z,12.60
2018-10-11T11:29:04.420Z,13.83
2018-10-11T11:31:33.044Z,12.73
2018-10-11T11:34:01.990Z,13.53
2018-10-11T11:36:30.355Z,13.10
2018-10-11T11:38:59.054Z,13.07
2018-10-11T11:41:27.799Z,12.23
2018-10-11T11:43:56.164Z,12.70
2018-10-11T11:46:25.323Z,14.77
2018-10-11T11:48:53.602Z,13.73
2018-10-11T11:51:21.980Z,14.00
2018-10-11T11:53:50.250Z,13.13
2018-10-11T11:56:18.510Z,13.60
2018-10-11T11:58:46.807Z,13.30
2018-10-11T12:01:15.099Z,13.47
2018-10-11T12:03:43.443Z,13.73
2018-10-11T12:06:11.907Z,13.00
2018-10-11T12:08:40.842Z,13.33
2018-10-11T12:11:09.192Z,13.40
2018-10-11T12:13:37.560Z,13.03
2018-10-11T12:16:05.941Z,12.90
2018-10-11T12:18:34.306Z,13.07
2018-10-11T12:21:02.842Z,13.60
2018-10-11T12:23:31.176Z,12.97
2018-10-11T12:25:59.440Z,12.97
2018-10-11T12:28:27.797Z,12.50
2018-10-11T12:30:56.329Z,13.17
2018-10-11T12:33:24.808Z,12.57
2018-10-11T12:35:53.324Z,13.17
2018-10-11T12:38:21.830Z,12.77
2018-10-11T12:40:50.127Z,12.90
2018-10-11T12:43:18.463Z,12.97
2018-10-11T12:45:46.815Z,13.33
2018-10-11T12:48:15.204Z,12.83
2018-10-11T12:50:43.540Z,14.47
2018-10-11T12:53:11.922Z,13.17
2018-10-11T12:55:40.410Z,12.97
2018-10-11T12:58:08.708Z,12.43
2018-10-11T13:00:37.908Z,12.77
2018-10-11T13:03:06.216Z,12.50
2018-10-11T13:05:34.623Z,13.73
2018-10-11T13:08:02.908Z,13.47
2018-10-11T13:10:31.237Z,12.33
2018-10-11T13:13:01.632Z,12.73
2018-10-11T13:15:28.003Z,12.70
2018-10-11T13:17:56.268Z,14.13
2018-10-11T13:20:24.810Z,15.27
2018-10-11T13:22:53.310Z,14.00
2018-10-11T13:25:21.731Z,13.97
2018-10-11T13:27:50.117Z,12.50
2018-10-11T13:30:18.427Z,12.57
2018-10-11T13:32:46.801Z,13.00
2018-10-11T13:35:15.351Z,12.57
2018-10-11T13:37:43.573Z,13.17
2018-10-11T13:40:12.091Z,12.70
2018-10-11T13:42:53.468Z,13.27
2018-10-11T13:45:21.992Z,13.30
2018-10-11T13:47:50.285Z,12.07
2018-10-11T13:50:18.525Z,12.60
2018-10-11T13:52:46.796Z,13.63
2018-10-11T13:55:15.799Z,12.63
2018-10-11T13:57:43.714Z,13.27
2018-10-11T14:00:12.359Z,13.07
2018-10-11T14:02:41.111Z,12.37
2018-10-11T14:05:09.441Z,12.20
2018-10-11T14:07:37.889Z,12.40
2018-10-11T14:10:06.259Z,13.93
2018-10-11T14:12:34.657Z,14.80
2018-10-11T14:15:03.398Z,15.10
2018-10-11T14:17:31.862Z,16.53
2018-10-11T14:20:00.782Z,14.63
2018-10-11T14:22:29.795Z,14.40
2018-10-11T14:24:58.301Z,16.00
2018-10-11T14:27:26.845Z,12.80
2018-10-11T14:29:55.225Z,12.40
2018-10-11T14:32:23.633Z,13.70
2018-10-11T14:34:52.035Z,13.90
2018-10-11T14:37:20.922Z,13.43
2018-10-11T14:39:50.023Z,13.00
2018-10-11T14:42:18.341Z,12.60
2018-10-11T14:44:46.915Z,13.63
2018-10-11T14:47:15.258Z,12.23
2018-10-11T14:49:44.241Z,12.13
2018-10-11T14:52:12.654Z,13.10
2018-10-11T14:54:41.290Z,13.83
2018-10-11T14:57:09.750Z,13.27
2018-10-11T14:59:38.323Z,13.00
2018-10-11T15:02:06.755Z,12.33
2018-10-11T15:04:35.285Z,12.23
2018-10-11T15:07:03.735Z,14.13
2018-10-11T15:09:32.126Z,11.80
2018-10-11T15:12:00.749Z,11.03
2018-10-11T15:14:29.637Z,11.93
2018-10-11T15:16:58.171Z,12.93
2018-10-11T15:19:26.533Z,12.80
2018-10-11T15:21:55.172Z,11.87
2018-10-11T15:24:23.794Z,11.53
2018-10-11T15:26:55.868Z,12.10
2018-10-11T15:29:24.458Z,11.97
2018-10-11T15:31:53.652Z,11.80
2018-10-11T15:34:22.331Z,11.93
2018-10-11T15:36:50.671Z,11.17
2018-10-11T15:39:18.920Z,10.60
2018-10-11T15:41:48.255Z,10.57
2018-10-11T15:44:17.159Z,13.43
2018-10-11T15:46:45.933Z,13.10
2018-10-11T15:49:14.988Z,13.17
2018-10-11T15:51:43.924Z,11.60
2018-10-11T15:54:12.329Z,11.00
2018-10-11T15:56:40.751Z,11.33
2018-10-11T15:59:09.147Z,12.23
2018-10-11T16:01:37.601Z,17.47
2018-10-11T16:04:06.221Z,15.80
2018-10-11T16:06:34.890Z,13.20
2018-10-11T16:09:03.715Z,13.00
2018-10-11T16:11:32.559Z,11.30
2018-10-11T16:14:01.993Z,13.00
2018-10-11T16:16:30.568Z,12.13
2018-10-11T16:18:58.929Z,13.27
2018-10-11T16:21:27.206Z,12.10
2018-10-11T16:23:55.506Z,12.20
2018-10-11T16:26:24.987Z,11.67
2018-10-11T16:28:58.825Z,12.60
2018-10-11T16:31:32.250Z,17.20
2018-10-11T16:34:01.415Z,14.20
2018-10-11T16:36:30.121Z,13.40
2018-10-11T16:38:58.646Z,16.13
2018-10-11T16:41:27.956Z,17.77
2018-10-11T16:43:56.361Z,18.93
2018-10-11T16:46:25.744Z,18.23
2018-10-11T16:48:54.765Z,19.07
2018-10-11T16:51:23.363Z,17.90
2018-10-11T16:53:51.924Z,15.87
2018-10-11T16:56:20.303Z,14.67
2018-10-11T16:58:48.624Z,15.57
2018-10-11T17:01:17.188Z,13.73
2018-10-11T17:03:45.506Z,16.67
2018-10-11T17:06:14.011Z,17.00
2018-10-11T17:08:42.430Z,15.23
2018-10-11T17:11:10.760Z,15.60
2018-10-11T17:13:39.123Z,17.23
2018-10-11T17:16:07.442Z,18.67
2018-10-11T17:18:37.232Z,20.63
2018-10-11T17:21:05.766Z,16.60
2018-10-11T17:23:34.516Z,14.57
2018-10-11T17:26:02.938Z,15.43
2018-10-11T17:28:31.578Z,15.20
2018-10-11T17:30:59.880Z,14.17
2018-10-11T17:33:28.520Z,13.70
2018-10-11T17:35:57.149Z,13.83
2018-10-11T17:38:26.507Z,13.17
2018-10-11T17:40:54.902Z,14.03
2018-10-11T17:43:23.411Z,14.00
2018-10-11T17:45:52.595Z,16.13
2018-10-11T17:48:22.347Z,17.20
2018-10-11T17:50:51.107Z,16.37
2018-10-11T17:53:20.887Z,16.00
2018-10-11T17:55:49.297Z,16.13
2018-10-11T17:58:17.876Z,19.20
2018-10-11T18:00:46.451Z,24.10
2018-10-11T18:03:14.913Z,28.50
2018-10-11T18:05:43.431Z,24.13
2018-10-11T18:08:11.831Z,20.70
2018-10-11T18:10:40.537Z,18.23
2018-10-11T18:13:09.755Z,16.13
2018-10-11T18:15:38.275Z,16.93
2018-10-11T18:18:13.483Z,15.50
2018-10-11T18:20:42.883Z,16.83
2018-10-11T18:23:12.322Z,16.80
2018-10-11T18:25:41.743Z,18.67
2018-10-11T18:28:12.028Z,52.50
2018-10-11T18:30:40.575Z,24.83
2018-10-11T18:33:09.323Z,21.23
2018-10-11T18:35:39.065Z,18.70
2018-10-11T18:38:07.700Z,18.80
2018-10-11T18:40:36.262Z,24.43
2018-10-11T18:43:04.773Z,23.03
2018-10-11T18:45:33.147Z,31.23
2018-10-11T18:48:01.679Z,39.17
2018-10-11T18:50:32.445Z,39.70
2018-10-11T18:53:01.287Z,56.63
2018-10-11T18:55:29.914Z,28.83
2018-10-11T18:57:58.589Z,24.93
2018-10-11T19:00:27.265Z,21.37
2018-10-11T19:02:55.682Z,20.53
2018-10-11T19:05:24.248Z,19.13
2018-10-11T19:07:52.895Z,18.83
2018-10-11T19:10:21.343Z,22.03
2018-10-11T19:12:50.091Z,17.73
2018-10-11T19:15:18.489Z,16.33
2018-10-11T19:17:47.644Z,17.93
2018-10-11T19:20:16.264Z,16.27
2018-10-11T19:22:44.931Z,15.73
2018-10-11T19:25:13.367Z,17.13
2018-10-11T19:27:41.927Z,20.37
2018-10-11T19:30:10.814Z,23.63
2018-10-11T19:32:39.285Z,27.03
2018-10-11T19:35:07.879Z,26.93
2018-10-11T19:37:36.317Z,19.40
2018-10-11T19:40:05.434Z,15.70
2018-10-11T19:42:34.173Z,16.67
2018-10-11T19:45:02.683Z,18.50
2018-10-11T19:47:31.425Z,17.87
2018-10-11T19:49:59.964Z,18.10
2018-10-11T19:52:28.542Z,15.83
2018-10-11T19:54:57.211Z,18.57
2018-10-11T19:57:25.844Z,18.20
2018-10-11T19:59:54.396Z,19.90
2018-10-11T20:02:22.941Z,17.57
2018-10-11T20:04:51.469Z,19.10
2018-10-11T20:07:19.916Z,20.70
2018-10-11T20:09:48.339Z,19.80
2018-10-11T20:12:16.918Z,18.30
2018-10-11T20:14:45.728Z,19.00
2018-10-11T20:17:14.155Z,17.33
2018-10-11T20:19:42.698Z,16.23
2018-10-11T20:22:12.114Z,16.07
2018-10-11T20:24:40.549Z,33.50
2018-10-11T20:27:09.730Z,46.00
2018-10-11T20:29:38.625Z,147.00
2018-10-11T20:32:08.345Z,159.27
2018-10-11T20:34:36.861Z,61.60
2018-10-11T20:37:05.797Z,115.67
2018-10-11T20:39:34.510Z,25.93
2018-10-11T20:42:03.568Z,39.33
2018-10-11T20:44:32.139Z,138.60
2018-10-11T20:47:00.550Z,87.73
2018-10-11T20:49:29.076Z,45.87
2018-10-11T20:51:57.425Z,30.17
2018-10-11T20:54:26.312Z,25.40
2018-10-11T20:56:54.885Z,21.37
2018-10-11T20:59:23.936Z,18.10
2018-10-11T21:01:52.721Z,16.57
2018-10-11T21:04:22.258Z,14.30
2018-10-11T21:06:50.518Z,15.60
2018-10-11T21:09:18.943Z,15.87
2018-10-11T21:11:47.402Z,17.90
2018-10-11T21:14:15.773Z,21.70
2018-10-11T21:16:44.044Z,21.33
2018-10-11T21:19:12.510Z,21.00
2018-10-11T21:21:40.850Z,18.57
2018-10-11T21:24:09.473Z,18.47
2018-10-11T21:26:37.796Z,21.90
2018-10-11T21:29:12.870Z,32.87
2018-10-11T21:31:41.279Z,31.40
2018-10-11T21:34:09.824Z,28.73
2018-10-11T21:36:38.301Z,26.53
2018-10-11T21:39:09.528Z,20.97
2018-10-11T21:41:38.028Z,19.97
2018-10-11T21:44:06.604Z,19.77
2018-10-11T21:46:35.241Z,23.30
2018-10-11T21:49:04.070Z,22.47
2018-10-11T21:51:33.103Z,21.43
2018-10-11T21:54:01.734Z,18.30
2018-10-11T21:56:30.173Z,17.40
2018-10-11T21:58:58.587Z,14.87
2018-10-11T22:01:26.977Z,15.17
2018-10-11T22:03:55.314Z,17.43
2018-10-11T22:06:24.161Z,44.97
2018-10-11T22:08:52.656Z,47.33
2018-10-11T22:11:20.950Z,55.73
2018-10-11T22:13:49.450Z,108.47
2018-10-11T22:16:17.868Z,19.33
2018-10-11T22:18:46.369Z,158.63
2018-10-11T22:21:14.652Z,95.83
2018-10-11T22:23:43.808Z,15.13
2018-10-11T22:26:12.770Z,13.83
2018-10-11T22:28:41.783Z,24.73
2018-10-11T22:31:11.809Z,33.23
2018-10-11T22:33:40.486Z,25.77
2018-10-11T22:36:09.724Z,19.27
2018-10-11T22:38:38.101Z,15.20
2018-10-11T22:41:06.394Z,15.77
2018-10-11T22:43:35.134Z,15.67
2018-10-11T22:46:03.453Z,20.97
2018-10-11T22:48:31.791Z,51.80
2018-10-11T22:51:00.391Z,16.83
2018-10-11T22:53:28.735Z,14.70
2018-10-11T22:55:57.168Z,14.07
2018-10-11T22:58:25.556Z,14.30
2018-10-11T23:00:53.809Z,14.13
2018-10-11T23:03:22.214Z,14.83
2018-10-11T23:05:50.576Z,18.23
2018-10-11T23:08:18.905Z,15.57
2018-10-11T23:10:47.353Z,13.83
2018-10-11T23:13:15.728Z,13.53
2018-10-11T23:15:44.036Z,13.13
2018-10-11T23:18:12.363Z,12.70
2018-10-11T23:20:40.724Z,12.40
2018-10-11T23:23:08.988Z,11.50
2018-10-11T23:25:37.295Z,12.03
2018-10-11T23:28:05.710Z,11.73
2018-10-11T23:30:34.013Z,11.37
2018-10-11T23:33:02.464Z,11.47
2018-10-11T23:35:30.767Z,12.00
2018-10-11T23:37:59.031Z,12.87
2018-10-11T23:40:27.391Z,12.63
2018-10-11T23:42:55.657Z,13.57
2018-10-11T23:45:24.000Z,14.10
2018-10-11T23:47:52.335Z,13.80
2018-10-11T23:50:20.892Z,14.27
2018-10-11T23:52:49.151Z,13.57
2018-10-11T23:55:17.448Z,13.80
2018-10-11T23:57:45.681Z,14.07
